createdAt,value
2023-04-15T00:00:31.029Z,4.94
2023-04-15T00:03:34.677Z,5.03
2023-04-15T00:06:37.534Z,5.08
2023-04-15T00:09:40.222Z,5.09
2023-04-15T00:12:42.893Z,5.25
2023-04-15T00:15:45.489Z,5.19
2023-04-15T00:18:48.040Z,5.23
2023-04-15T00:21:50.607Z,5.21
2023-04-15T00:24:53.438Z,5.19
2023-04-15T00:27:57.148Z,5.19
2023-04-15T00:30:59.588Z,5.24
2023-04-15T00:34:02.612Z,5.32
2023-04-15T00:37:04.970Z,5.33
2023-04-15T00:40:12.345Z,5.30
2023-04-15T00:43:14.660Z,5.20
2023-04-15T00:46:17.741Z,5.19
2023-04-15T00:49:20.326Z,5.23
2023-04-15T00:52:22.829Z,5.29
2023-04-15T00:55:26.772Z,5.22
2023-04-15T00:58:29.357Z,5.28
2023-04-15T01:01:31.855Z,5.11
2023-04-15T01:04:34.605Z,5.05
2023-04-15T01:07:37.009Z,5.01
2023-04-15T01:10:39.598Z,5.15
2023-04-15T01:13:42.515Z,5.22
2023-04-15T01:16:45.756Z,5.31
2023-04-15T01:19:48.752Z,5.17
2023-04-15T01:22:51.471Z,5.12
2023-04-15T01:25:54.407Z,5.23
2023-04-15T01:28:57.804Z,5.23
2023-04-15T01:32:00.277Z,5.20
2023-04-15T01:35:03.014Z,5.24
2023-04-15T01:38:06.471Z,5.21
2023-04-15T01:41:09.117Z,5.28
2023-04-15T01:44:11.836Z,5.20
2023-04-15T01:47:15.674Z,5.04
2023-04-15T01:50:18.099Z,5.19
2023-04-15T01:53:21.423Z,5.33
2023-04-15T01:56:26.888Z,5.25
2023-04-15T01:59:31.379Z,5.25
2023-04-15T02:02:34.758Z,5.11
2023-04-15T02:05:37.446Z,5.15
2023-04-15T02:08:39.669Z,5.38
2023-04-15T02:11:43.140Z,5.30
2023-04-15T02:14:45.774Z,5.28
2023-04-15T02:17:51.072Z,5.19
2023-04-15T02:20:54.104Z,5.22
2023-04-15T02:23:57.284Z,5.30
2023-04-15T02:26:59.622Z,5.31
2023-04-15T02:30:02.441Z,5.37
2023-04-15T02:33:05.077Z,5.28
2023-04-15T02:36:08.414Z,5.27
2023-04-15T02:39:11.313Z,5.24
2023-04-15T02:42:14.159Z,5.31
2023-04-15T02:45:16.428Z,5.25
2023-04-15T02:48:20.388Z,5.36
2023-04-15T02:51:23.035Z,5.36
2023-04-15T02:54:26.280Z,5.55
2023-04-15T02:57:29.553Z,5.55
2023-04-15T03:00:33.233Z,5.45
2023-04-15T03:03:35.749Z,5.52
2023-04-15T03:06:46.288Z,5.38
2023-04-15T03:09:48.750Z,5.43
2023-04-15T03:12:51.704Z,5.55
2023-04-15T03:15:54.595Z,5.51
2023-04-15T03:18:58.112Z,5.57
2023-04-15T03:22:00.701Z,5.65
2023-04-15T03:25:03.527Z,5.53
2023-04-15T03:28:07.567Z,5.59
2023-04-15T03:31:10.250Z,5.73
2023-04-15T03:34:12.568Z,5.71
2023-04-15T03:37:15.532Z,5.68
2023-04-15T03:40:17.825Z,5.64
2023-04-15T03:43:20.449Z,5.70
2023-04-15T03:46:22.860Z,5.73
2023-04-15T03:49:25.615Z,5.69
2023-04-15T03:52:27.982Z,5.75
2023-04-15T03:55:30.595Z,5.85
2023-04-15T03:58:32.934Z,5.80
2023-04-15T04:01:35.487Z,5.66
2023-04-15T04:04:38.267Z,5.60
2023-04-15T04:07:40.562Z,5.58
2023-04-15T04:10:43.157Z,5.59
2023-04-15T04:13:45.577Z,5.58
2023-04-15T04:16:48.303Z,5.56
2023-04-15T04:19:50.603Z,5.58
2023-04-15T04:22:53.179Z,5.61
2023-04-15T04:25:55.506Z,5.69
2023-04-15T04:28:58.069Z,5.89
2023-04-15T04:32:00.687Z,5.89
2023-04-15T04:35:04.069Z,5.95
2023-04-15T04:38:06.362Z,5.99
2023-04-15T04:41:08.992Z,6.01
2023-04-15T04:44:11.305Z,6.23
2023-04-15T04:47:14.174Z,6.20
2023-04-15T04:50:18.368Z,6.36
2023-04-15T04:53:21.065Z,6.47
2023-04-15T04:56:23.317Z,6.58
2023-04-15T04:59:26.535Z,6.70
2023-04-15T05:02:28.927Z,6.78
2023-04-15T05:05:31.993Z,7.17
2023-04-15T05:08:34.416Z,7.33
2023-04-15T05:11:37.026Z,7.56
2023-04-15T05:14:40.070Z,7.71
2023-04-15T05:17:42.663Z,7.91
2023-04-15T05:20:45.190Z,8.05
2023-04-15T05:23:47.725Z,8.33
2023-04-15T05:26:49.973Z,8.51
2023-04-15T05:29:52.763Z,8.45
2023-04-15T05:32:55.033Z,8.29
2023-04-15T05:35:57.656Z,8.55
2023-04-15T05:39:00.128Z,8.59
2023-04-15T05:42:03.579Z,8.22
2023-04-15T05:45:09.081Z,8.21
2023-04-15T05:48:11.993Z,7.80
2023-04-15T05:51:14.375Z,7.70
2023-04-15T05:54:18.703Z,7.67
2023-04-15T05:57:22.366Z,7.73
2023-04-15T06:00:25.301Z,7.76
2023-04-15T06:03:27.964Z,7.71
2023-04-15T06:06:30.887Z,7.79
2023-04-15T06:09:33.842Z,7.69
2023-04-15T06:12:36.312Z,7.75
2023-04-15T06:15:38.919Z,7.68
2023-04-15T06:18:41.550Z,8.03
2023-04-15T06:21:44.413Z,8.46
2023-04-15T06:24:46.745Z,8.64
2023-04-15T06:27:49.461Z,8.85
2023-04-15T06:30:52.835Z,9.05
2023-04-15T06:33:55.425Z,9.19
2023-04-15T06:36:57.792Z,9.24
2023-04-15T06:40:00.562Z,8.80
2023-04-15T06:43:03.135Z,8.55
2023-04-15T06:46:05.917Z,8.97
2023-04-15T06:49:08.507Z,9.59
2023-04-15T06:52:11.392Z,9.84
2023-04-15T06:55:14.757Z,9.51
2023-04-15T06:58:17.549Z,9.92
2023-04-15T07:01:20.298Z,10.30
2023-04-15T07:04:22.886Z,11.17
2023-04-15T07:07:25.686Z,11.69
2023-04-15T07:10:28.283Z,11.91
2023-04-15T07:13:31.452Z,11.44
2023-04-15T07:16:34.093Z,10.80
2023-04-15T07:19:36.549Z,9.76
2023-04-15T07:22:39.197Z,10.76
2023-04-15T07:25:41.653Z,11.05
2023-04-15T07:28:46.283Z,9.68
2023-04-15T07:31:48.510Z,9.77
2023-04-15T07:34:51.825Z,11.28
2023-04-15T07:37:54.213Z,11.91
2023-04-15T07:40:56.855Z,11.73
2023-04-15T07:43:59.571Z,11.19
2023-04-15T07:47:02.803Z,11.12
2023-04-15T07:50:05.379Z,13.02
2023-04-15T07:53:08.356Z,12.66
2023-04-15T07:56:11.352Z,12.19
2023-04-15T07:59:15.404Z,11.64
2023-04-15T08:02:18.506Z,12.99
2023-04-15T08:05:21.419Z,12.24
2023-04-15T08:08:23.919Z,11.57
2023-04-15T08:11:27.792Z,12.27
2023-04-15T08:14:30.376Z,11.43
2023-04-15T08:17:32.968Z,11.32
2023-04-15T08:20:35.497Z,11.66
2023-04-15T08:23:38.626Z,11.71
2023-04-15T08:26:40.974Z,11.64
2023-04-15T08:29:43.562Z,11.68
2023-04-15T08:32:47.024Z,12.29
2023-04-15T08:35:49.631Z,11.97
2023-04-15T08:38:52.040Z,13.07
2023-04-15T08:41:58.779Z,13.20
2023-04-15T08:45:04.137Z,13.11
2023-04-15T08:48:07.766Z,11.92
2023-04-15T08:51:11.032Z,12.75
2023-04-15T08:54:14.095Z,13.20
2023-04-15T08:57:16.633Z,11.50
2023-04-15T09:00:19.448Z,11.71
2023-04-15T09:03:23.724Z,12.58
2023-04-15T09:06:27.167Z,12.43
2023-04-15T09:09:29.655Z,12.35
2023-04-15T09:12:34.729Z,13.60
2023-04-15T09:15:38.437Z,14.18
2023-04-15T09:18:41.450Z,13.24
2023-04-15T09:21:47.205Z,13.80
2023-04-15T09:24:49.847Z,12.32
2023-04-15T09:27:53.724Z,11.91
2023-04-15T09:30:59.591Z,11.75
2023-04-15T09:34:02.097Z,12.70
2023-04-15T09:37:04.842Z,12.56
2023-04-15T09:40:07.801Z,11.97
2023-04-15T09:43:12.938Z,12.12
2023-04-15T09:46:15.497Z,12.05
2023-04-15T09:49:18.384Z,11.89
2023-04-15T09:52:20.676Z,12.85
2023-04-15T09:55:23.238Z,12.32
2023-04-15T09:58:29.464Z,13.04
2023-04-15T10:01:32.416Z,13.82
2023-04-15T10:04:40.070Z,13.81
2023-04-15T10:07:42.932Z,12.90
2023-04-15T10:10:46.673Z,12.62
2023-04-15T10:13:50.668Z,12.28
2023-04-15T10:16:56.481Z,12.48
2023-04-15T10:20:00.644Z,12.30
2023-04-15T10:23:03.759Z,12.15
2023-04-15T10:26:06.194Z,12.66
2023-04-15T10:29:09.852Z,12.62
2023-04-15T10:32:12.954Z,13.12
2023-04-15T10:35:16.618Z,12.04
2023-04-15T10:38:37.669Z,12.03
2023-04-15T10:41:40.479Z,12.48
2023-04-15T10:44:43.893Z,13.21
2023-04-15T10:47:46.436Z,13.50
2023-04-15T10:50:58.227Z,13.37
2023-04-15T10:54:00.936Z,13.54
2023-04-15T10:57:06.635Z,13.24
2023-04-15T11:00:09.307Z,12.70
2023-04-15T11:03:12.245Z,12.15
2023-04-15T11:06:14.994Z,12.38
2023-04-15T11:09:35.716Z,11.99
2023-04-15T11:12:38.436Z,11.61
2023-04-15T11:15:47.341Z,11.40
2023-04-15T11:18:56.734Z,11.29
2023-04-15T11:22:06.630Z,10.94
2023-04-15T11:25:09.252Z,10.65
2023-04-15T11:28:12.761Z,11.59
2023-04-15T11:31:18.137Z,12.12
2023-04-15T11:34:24.103Z,12.54
2023-04-15T11:37:30.054Z,14.17
2023-04-15T11:40:33.560Z,15.02
2023-04-15T11:43:36.246Z,15.75
2023-04-15T11:46:38.592Z,16.65
2023-04-15T11:49:41.620Z,15.93
2023-04-15T11:52:54.411Z,14.21
2023-04-15T11:55:57.026Z,13.47
2023-04-15T11:59:00.052Z,13.30
2023-04-15T12:02:11.683Z,12.83
2023-04-15T12:05:14.649Z,12.22
2023-04-15T12:08:17.211Z,12.33
2023-04-15T12:11:20.473Z,12.58
2023-04-15T12:14:26.835Z,12.00
2023-04-15T12:17:29.620Z,11.85
2023-04-15T12:20:51.922Z,12.89
2023-04-15T12:23:58.113Z,13.68
2023-04-15T12:27:05.661Z,14.00
2023-04-15T12:30:09.027Z,14.13
2023-04-15T12:33:12.061Z,13.75
2023-04-15T12:36:14.695Z,13.18
2023-04-15T12:39:16.951Z,13.16
2023-04-15T12:42:19.760Z,12.94
2023-04-15T12:45:22.180Z,12.13
2023-04-15T12:48:24.844Z,12.02
2023-04-15T12:51:27.449Z,11.81
2023-04-15T12:54:30.855Z,11.61
2023-04-15T12:57:33.160Z,11.12
2023-04-15T13:00:35.996Z,11.43
2023-04-15T13:03:38.997Z,11.26
2023-04-15T13:06:42.066Z,11.24
2023-04-15T13:09:44.912Z,11.48
2023-04-15T13:12:50.160Z,11.14
2023-04-15T13:15:52.547Z,11.72
2023-04-15T13:18:55.528Z,12.17
2023-04-15T13:21:57.944Z,11.85
2023-04-15T13:25:00.983Z,11.56
2023-04-15T13:28:03.335Z,12.06
2023-04-15T13:31:06.180Z,12.42
2023-04-15T13:34:08.549Z,11.77
2023-04-15T13:37:11.152Z,12.36
2023-04-15T13:40:13.545Z,11.95
2023-04-15T13:43:16.301Z,11.61
2023-04-15T13:46:18.800Z,11.28
2023-04-15T13:49:21.650Z,11.16
2023-04-15T13:52:24.046Z,11.14
2023-04-15T13:55:27.163Z,11.19
2023-04-15T13:58:31.283Z,11.97
2023-04-15T14:01:34.732Z,12.40
2023-04-15T14:04:38.231Z,12.15
2023-04-15T14:07:41.066Z,12.25
2023-04-15T14:10:48.424Z,12.05
2023-04-15T14:13:50.854Z,11.99
2023-04-15T14:16:53.557Z,11.84
2023-04-15T14:19:56.062Z,11.80
2023-04-15T14:22:58.782Z,11.97
2023-04-15T14:26:01.352Z,11.86
2023-04-15T14:29:04.332Z,12.37
2023-04-15T14:32:12.362Z,12.31
2023-04-15T14:35:15.323Z,12.40
2023-04-15T14:38:17.742Z,12.11
2023-04-15T14:41:20.707Z,12.02
2023-04-15T14:44:24.064Z,11.85
2023-04-15T14:47:26.726Z,11.52
2023-04-15T14:50:29.186Z,11.37
2023-04-15T14:53:31.964Z,11.15
2023-04-15T14:56:34.334Z,11.33
2023-04-15T14:59:36.984Z,11.20
2023-04-15T15:02:40.487Z,11.13
2023-04-15T15:05:44.790Z,11.31
2023-04-15T15:08:47.106Z,11.31
2023-04-15T15:11:49.892Z,11.22
2023-04-15T15:14:52.801Z,11.10
2023-04-15T15:17:55.688Z,11.25
2023-04-15T15:20:58.485Z,11.33
2023-04-15T15:24:01.186Z,10.98
2023-04-15T15:27:03.488Z,11.08
2023-04-15T15:30:06.914Z,11.14
2023-04-15T15:33:09.402Z,10.88
2023-04-15T15:36:12.197Z,11.00
2023-04-15T15:39:14.797Z,11.06
2023-04-15T15:42:18.886Z,10.99
2023-04-15T15:45:21.235Z,11.15
2023-04-15T15:48:24.264Z,11.24
2023-04-15T15:51:27.584Z,11.26
2023-04-15T15:54:30.319Z,10.93
2023-04-15T15:57:32.569Z,10.88
2023-04-15T16:00:35.742Z,10.76
2023-04-15T16:03:38.520Z,10.80
2023-04-15T16:06:41.208Z,10.86
2023-04-15T16:09:44.001Z,10.71
2023-04-15T16:12:46.526Z,10.81
2023-04-15T16:15:52.341Z,10.60
2023-04-15T16:18:54.604Z,10.39
2023-04-15T16:21:57.275Z,10.32
2023-04-15T16:25:00.497Z,10.09
2023-04-15T16:28:11.494Z,9.83
2023-04-15T16:31:21.171Z,9.71
2023-04-15T16:34:23.693Z,9.51
2023-04-15T16:37:26.156Z,9.51
2023-04-15T16:40:28.672Z,9.70
2023-04-15T16:43:31.019Z,9.73
2023-04-15T16:46:33.667Z,9.79
2023-04-15T16:49:36.171Z,9.87
2023-04-15T16:52:38.727Z,9.86
2023-04-15T16:55:41.105Z,9.83
2023-04-15T16:58:43.692Z,9.81
2023-04-15T17:01:46.366Z,9.79
2023-04-15T17:04:48.963Z,9.80
2023-04-15T17:07:51.290Z,9.78
2023-04-15T17:10:55.158Z,9.75
2023-04-15T17:13:57.406Z,9.65
2023-04-15T17:16:59.872Z,9.61
2023-04-15T17:20:02.153Z,9.55
2023-04-15T17:23:04.896Z,9.44
2023-04-15T17:26:07.148Z,9.44
2023-04-15T17:29:09.660Z,9.34
2023-04-15T17:32:12.006Z,9.33
2023-04-15T17:35:14.609Z,9.26
2023-04-15T17:38:16.849Z,9.22
2023-04-15T17:41:19.538Z,9.12
2023-04-15T17:44:23.520Z,9.09
2023-04-15T17:47:27.828Z,9.05
2023-04-15T17:50:30.155Z,9.03
2023-04-15T17:53:32.897Z,8.96
2023-04-15T17:56:35.114Z,9.02
2023-04-15T17:59:37.975Z,8.93
2023-04-15T18:02:41.338Z,8.89
2023-04-15T18:05:44.364Z,8.79
2023-04-15T18:08:47.037Z,8.55
2023-04-15T18:11:49.655Z,8.42
2023-04-15T18:14:53.209Z,8.37
2023-04-15T18:17:55.864Z,8.42
2023-04-15T18:20:58.616Z,8.38
2023-04-15T18:24:01.233Z,8.26
2023-04-15T18:27:03.859Z,8.17
2023-04-15T18:30:10.304Z,8.11
2023-04-15T18:33:12.727Z,8.08
2023-04-15T18:36:15.264Z,8.08
2023-04-15T18:39:17.497Z,8.05
2023-04-15T18:42:20.974Z,8.01
2023-04-15T18:45:23.341Z,7.96
2023-04-15T18:48:26.926Z,7.90
2023-04-15T18:51:29.639Z,7.88
2023-04-15T18:54:32.294Z,7.81
2023-04-15T18:57:35.857Z,7.86
2023-04-15T19:00:41.691Z,7.81
2023-04-15T19:03:44.335Z,7.73
2023-04-15T19:06:47.450Z,7.68
2023-04-15T19:09:50.014Z,7.62
2023-04-15T19:12:52.591Z,7.56
2023-04-15T19:15:54.926Z,7.51
2023-04-15T19:18:57.612Z,7.46
2023-04-15T19:22:01.701Z,7.46
2023-04-15T19:25:05.391Z,7.42
2023-04-15T19:28:07.678Z,7.39
2023-04-15T19:31:10.280Z,7.42
2023-04-15T19:34:12.753Z,7.42
2023-04-15T19:37:15.995Z,7.43
2023-04-15T19:40:18.395Z,7.47
2023-04-15T19:43:21.002Z,7.50
2023-04-15T19:46:23.669Z,7.53
2023-04-15T19:49:26.940Z,7.56
2023-04-15T19:52:29.335Z,7.57
2023-04-15T19:55:31.965Z,7.58
2023-04-15T19:58:34.440Z,7.60
2023-04-15T20:01:37.186Z,7.61
2023-04-15T20:04:39.807Z,7.66
2023-04-15T20:07:43.072Z,7.68
2023-04-15T20:10:45.658Z,7.70
2023-04-15T20:13:47.962Z,7.73
2023-04-15T20:16:50.542Z,7.78
2023-04-15T20:19:52.960Z,7.81
2023-04-15T20:22:55.667Z,7.84
2023-04-15T20:25:57.943Z,7.83
2023-04-15T20:29:00.763Z,7.88
2023-04-15T20:32:03.435Z,7.89
2023-04-15T20:35:06.928Z,7.90
2023-04-15T20:38:09.340Z,8.06
2023-04-15T20:41:12.026Z,7.98
2023-04-15T20:44:14.538Z,8.10
2023-04-15T20:47:17.309Z,8.13
2023-04-15T20:50:19.707Z,8.12
2023-04-15T20:53:22.481Z,8.01
2023-04-15T20:56:27.334Z,7.96
2023-04-15T20:59:32.044Z,7.95
2023-04-15T21:02:34.530Z,8.09
2023-04-15T21:05:37.198Z,8.02
2023-04-15T21:08:39.580Z,7.97
2023-04-15T21:11:59.845Z,7.93
2023-04-15T21:15:03.871Z,7.93
2023-04-15T21:18:06.390Z,7.74
2023-04-15T21:21:08.787Z,7.65
2023-04-15T21:24:11.465Z,7.65
2023-04-15T21:27:13.707Z,7.64
2023-04-15T21:30:16.405Z,7.66
2023-04-15T21:33:20.385Z,7.48
2023-04-15T21:36:22.884Z,7.44
2023-04-15T21:39:30.138Z,7.34
2023-04-15T21:42:32.701Z,7.39
2023-04-15T21:45:35.324Z,7.36
2023-04-15T21:48:38.050Z,7.25
2023-04-15T21:51:40.669Z,7.14
2023-04-15T21:54:43.205Z,7.12
2023-04-15T21:57:45.428Z,7.07
2023-04-15T22:00:48.139Z,7.11
2023-04-15T22:03:51.164Z,7.17
2023-04-15T22:06:55.747Z,7.15
2023-04-15T22:09:58.359Z,7.08
2023-04-15T22:13:03.036Z,7.05
2023-04-15T22:16:05.911Z,7.04
2023-04-15T22:19:09.770Z,7.01
2023-04-15T22:22:12.481Z,7.11
2023-04-15T22:25:14.773Z,7.15
2023-04-15T22:28:17.309Z,7.10
2023-04-15T22:31:19.749Z,7.04
2023-04-15T22:34:22.675Z,7.03
2023-04-15T22:37:25.116Z,7.11
2023-04-15T22:40:28.518Z,7.10
2023-04-15T22:43:31.099Z,7.10
2023-04-15T22:46:33.857Z,7.08
2023-04-15T22:49:36.613Z,7.20
2023-04-15T22:52:40.638Z,7.20
2023-04-15T22:55:51.203Z,7.26
2023-04-15T22:58:53.746Z,7.24
2023-04-15T23:01:57.920Z,7.27
2023-04-15T23:05:02.176Z,7.16
2023-04-15T23:08:14.689Z,7.03
2023-04-15T23:11:18.452Z,6.97
2023-04-15T23:14:20.969Z,6.97
2023-04-15T23:17:23.727Z,6.87
2023-04-15T23:20:26.061Z,6.85
2023-04-15T23:23:28.661Z,6.84
2023-04-15T23:26:31.158Z,6.76
2023-04-15T23:29:33.685Z,6.77
2023-04-15T23:32:36.471Z,6.79
2023-04-15T23:35:39.450Z,6.80
2023-04-15T23:38:41.994Z,6.78
2023-04-15T23:41:44.644Z,6.84
2023-04-15T23:44:47.085Z,6.84
2023-04-15T23:47:49.608Z,6.78
2023-04-15T23:50:51.843Z,6.74
2023-04-15T23:53:54.493Z,6.72
2023-04-15T23:56:56.861Z,6.71
